sensor_id;sensor_type;location;lat;lon;timestamp;temperature;humidity
7427;DHT22;3755;59.316;18.092;2022-09-17T00:02:23;10.60;99.90
7427;DHT22;3755;59.316;18.092;2022-09-17T00:04:51;10.50;99.90
7427;DHT22;3755;59.316;18.092;2022-09-17T00:07:19;10.60;99.90
7427;DHT22;3755;59.316;18.092;2022-09-17T00:09:46;10.50;99.90
7427;DHT22;3755;59.316;18.092;2022-09-17T00:12:13;10.50;99.90
7427;DHT22;3755;59.316;18.092;2022-09-17T00:14:40;10.50;99.90
7427;DHT22;3755;59.316;18.092;2022-09-17T00:17:09;10.50;99.90
7427;DHT22;3755;59.316;18.092;2022-09-17T00:19:38;10.60;99.90
7427;DHT22;3755;59.316;18.092;2022-09-17T00:22:05;10.60;99.90
7427;DHT22;3755;59.316;18.092;2022-09-17T00:24:34;10.60;99.90
7427;DHT22;3755;59.316;18.092;2022-09-17T00:27:02;10.70;99.90
7427;DHT22;3755;59.316;18.092;2022-09-17T00:29:29;10.60;99.90
7427;DHT22;3755;59.316;18.092;2022-09-17T00:31:56;10.70;99.90
7427;DHT22;3755;59.316;18.092;2022-09-17T00:34:23;10.70;99.90
7427;DHT22;3755;59.316;18.092;2022-09-17T00:36:52;10.70;99.90
7427;DHT22;3755;59.316;18.092;2022-09-17T00:39:19;10.70;99.90
7427;DHT22;3755;59.316;18.092;2022-09-17T00:41:46;10.70;99.90
7427;DHT22;3755;59.316;18.092;2022-09-17T00:44:40;10.70;99.90
7427;DHT22;3755;59.316;18.092;2022-09-17T00:47:13;10.70;99.90
7427;DHT22;3755;59.316;18.092;2022-09-17T00:49:41;10.70;99.90
7427;DHT22;3755;59.316;18.092;2022-09-17T00:52:13;10.80;99.90
7427;DHT22;3755;59.316;18.092;2022-09-17T00:54:45;10.80;99.90
7427;DHT22;3755;59.316;18.092;2022-09-17T00:57:14;10.80;99.90
7427;DHT22;3755;59.316;18.092;2022-09-17T00:59:41;10.70;99.90
7427;DHT22;3755;59.316;18.092;2022-09-17T01:02:09;10.70;99.90
7427;DHT22;3755;59.316;18.092;2022-09-17T01:04:37;10.70;99.90
7427;DHT22;3755;59.316;18.092;2022-09-17T01:07:07;10.70;99.90
7427;DHT22;3755;59.316;18.092;2022-09-17T01:09:49;10.60;99.90
7427;DHT22;3755;59.316;18.092;2022-09-17T01:12:42;10.60;99.90
7427;DHT22;3755;59.316;18.092;2022-09-17T01:15:23;10.60;99.90
7427;DHT22;3755;59.316;18.092;2022-09-17T01:18:05;10.50;99.90
7427;DHT22;3755;59.316;18.092;2022-09-17T01:24:16;10.50;99.90
7427;DHT22;3755;59.316;18.092;2022-09-17T01:30:19;10.50;99.90
7427;DHT22;3755;59.316;18.092;2022-09-17T01:32:54;10.50;99.90
7427;DHT22;3755;59.316;18.092;2022-09-17T01:35:35;10.50;99.90
7427;DHT22;3755;59.316;18.092;2022-09-17T01:38:12;10.50;99.90
7427;DHT22;3755;59.316;18.092;2022-09-17T01:40:47;10.50;99.90
7427;DHT22;3755;59.316;18.092;2022-09-17T01:43:21;10.50;99.90
7427;DHT22;3755;59.316;18.092;2022-09-17T01:45:51;10.50;99.90
7427;DHT22;3755;59.316;18.092;2022-09-17T01:48:24;10.50;99.90
7427;DHT22;3755;59.316;18.092;2022-09-17T01:51:12;10.50;99.90
7427;DHT22;3755;59.316;18.092;2022-09-17T01:53:43;10.50;99.90
7427;DHT22;3755;59.316;18.092;2022-09-17T01:56:14;10.50;99.90
7427;DHT22;3755;59.316;18.092;2022-09-17T01:58:49;10.50;99.90
7427;DHT22;3755;59.316;18.092;2022-09-17T02:01:19;10.50;99.90
7427;DHT22;3755;59.316;18.092;2022-09-17T02:03:55;10.50;99.90
7427;DHT22;3755;59.316;18.092;2022-09-17T02:06:28;10.50;99.90
7427;DHT22;3755;59.316;18.092;2022-09-17T02:08:58;10.50;99.90
7427;DHT22;3755;59.316;18.092;2022-09-17T02:11:27;10.50;99.90
7427;DHT22;3755;59.316;18.092;2022-09-17T02:13:58;10.50;99.90
7427;DHT22;3755;59.316;18.092;2022-09-17T02:16:27;10.50;99.90
7427;DHT22;3755;59.316;18.092;2022-09-17T02:19:02;10.50;99.90
7427;DHT22;3755;59.316;18.092;2022-09-17T02:21:38;10.60;99.90
7427;DHT22;3755;59.316;18.092;2022-09-17T02:24:11;10.60;99.90
7427;DHT22;3755;59.316;18.092;2022-09-17T02:26:46;10.60;99.90
7427;DHT22;3755;59.316;18.092;2022-09-17T02:29:20;10.70;99.90
7427;DHT22;3755;59.316;18.092;2022-09-17T02:31:52;10.70;99.90
7427;DHT22;3755;59.316;18.092;2022-09-17T02:34:21;10.70;99.90
7427;DHT22;3755;59.316;18.092;2022-09-17T02:36:49;10.40;99.90
7427;DHT22;3755;59.316;18.092;2022-09-17T02:39:18;10.80;99.90
7427;DHT22;3755;59.316;18.092;2022-09-17T02:41:52;10.80;99.90
7427;DHT22;3755;59.316;18.092;2022-09-17T02:44:27;10.80;99.90
7427;DHT22;3755;59.316;18.092;2022-09-17T02:47:18;10.80;99.90
7427;DHT22;3755;59.316;18.092;2022-09-17T02:50:04;10.80;99.90
7427;DHT22;3755;59.316;18.092;2022-09-17T02:52:47;10.80;99.90
7427;DHT22;3755;59.316;18.092;2022-09-17T02:55:17;10.80;99.90
7427;DHT22;3755;59.316;18.092;2022-09-17T02:57:50;10.70;99.90
7427;DHT22;3755;59.316;18.092;2022-09-17T03:00:20;10.70;99.90
7427;DHT22;3755;59.316;18.092;2022-09-17T03:02:51;10.70;99.90
7427;DHT22;3755;59.316;18.092;2022-09-17T03:05:24;10.70;99.90
7427;DHT22;3755;59.316;18.092;2022-09-17T03:07:54;10.70;99.90
7427;DHT22;3755;59.316;18.092;2022-09-17T03:10:21;10.70;99.90
7427;DHT22;3755;59.316;18.092;2022-09-17T03:12:48;10.70;99.90
7427;DHT22;3755;59.316;18.092;2022-09-17T03:15:16;10.70;99.90
7427;DHT22;3755;59.316;18.092;2022-09-17T03:17:43;10.70;99.90
7427;DHT22;3755;59.316;18.092;2022-09-17T03:20:10;10.70;99.90
7427;DHT22;3755;59.316;18.092;2022-09-17T03:22:42;10.60;99.90
7427;DHT22;3755;59.316;18.092;2022-09-17T03:25:10;10.60;99.90
7427;DHT22;3755;59.316;18.092;2022-09-17T03:27:37;10.60;99.90
7427;DHT22;3755;59.316;18.092;2022-09-17T03:30:05;10.60;99.90
7427;DHT22;3755;59.316;18.092;2022-09-17T03:32:32;10.60;99.90
7427;DHT22;3755;59.316;18.092;2022-09-17T03:34:59;10.60;99.90
7427;DHT22;3755;59.316;18.092;2022-09-17T03:37:26;10.60;99.90
7427;DHT22;3755;59.316;18.092;2022-09-17T03:39:59;10.60;99.90
7427;DHT22;3755;59.316;18.092;2022-09-17T03:42:26;10.60;99.90
7427;DHT22;3755;59.316;18.092;2022-09-17T03:44:53;10.60;99.90
7427;DHT22;3755;59.316;18.092;2022-09-17T03:47:20;10.50;99.90
7427;DHT22;3755;59.316;18.092;2022-09-17T03:49:47;10.50;99.90
7427;DHT22;3755;59.316;18.092;2022-09-17T03:52:14;10.50;99.90
7427;DHT22;3755;59.316;18.092;2022-09-17T03:54:41;10.50;99.90
7427;DHT22;3755;59.316;18.092;2022-09-17T03:57:11;10.60;99.90
7427;DHT22;3755;59.316;18.092;2022-09-17T03:59:39;10.60;99.90
7427;DHT22;3755;59.316;18.092;2022-09-17T04:02:06;10.70;99.90
7427;DHT22;3755;59.316;18.092;2022-09-17T04:04:33;10.60;99.90
7427;DHT22;3755;59.316;18.092;2022-09-17T04:07:01;10.60;99.90
7427;DHT22;3755;59.316;18.092;2022-09-17T04:09:28;10.60;99.90
7427;DHT22;3755;59.316;18.092;2022-09-17T04:11:56;10.60;99.90
7427;DHT22;3755;59.316;18.092;2022-09-17T04:14:25;10.60;99.90
7427;DHT22;3755;59.316;18.092;2022-09-17T04:16:54;10.60;99.90
7427;DHT22;3755;59.316;18.092;2022-09-17T04:19:21;10.50;99.90
7427;DHT22;3755;59.316;18.092;2022-09-17T04:21:48;10.50;99.90
7427;DHT22;3755;59.316;18.092;2022-09-17T04:24:17;10.50;99.90
7427;DHT22;3755;59.316;18.092;2022-09-17T04:26:44;10.60;99.90
7427;DHT22;3755;59.316;18.092;2022-09-17T04:29:11;10.60;99.90
7427;DHT22;3755;59.316;18.092;2022-09-17T04:31:41;10.70;99.90
7427;DHT22;3755;59.316;18.092;2022-09-17T04:34:08;10.60;99.90
7427;DHT22;3755;59.316;18.092;2022-09-17T04:36:36;10.60;99.90
7427;DHT22;3755;59.316;18.092;2022-09-17T04:39:03;10.60;99.90
7427;DHT22;3755;59.316;18.092;2022-09-17T04:41:30;10.70;99.90
7427;DHT22;3755;59.316;18.092;2022-09-17T04:43:57;10.70;99.90
7427;DHT22;3755;59.316;18.092;2022-09-17T04:46:24;10.70;99.90
7427;DHT22;3755;59.316;18.092;2022-09-17T04:48:53;10.70;99.90
7427;DHT22;3755;59.316;18.092;2022-09-17T04:51:21;10.70;99.90
7427;DHT22;3755;59.316;18.092;2022-09-17T04:53:48;10.70;99.90
7427;DHT22;3755;59.316;18.092;2022-09-17T04:56:15;10.70;99.90
7427;DHT22;3755;59.316;18.092;2022-09-17T04:58:44;10.70;99.90
7427;DHT22;3755;59.316;18.092;2022-09-17T05:01:11;10.70;99.90
7427;DHT22;3755;59.316;18.092;2022-09-17T05:03:39;10.70;99.90
7427;DHT22;3755;59.316;18.092;2022-09-17T05:06:08;10.70;99.90
7427;DHT22;3755;59.316;18.092;2022-09-17T05:08:36;10.70;99.90
7427;DHT22;3755;59.316;18.092;2022-09-17T05:11:17;10.70;99.90
7427;DHT22;3755;59.316;18.092;2022-09-17T05:13:59;10.70;99.90
7427;DHT22;3755;59.316;18.092;2022-09-17T05:16:27;10.60;99.90
7427;DHT22;3755;59.316;18.092;2022-09-17T05:18:54;10.50;99.90
7427;DHT22;3755;59.316;18.092;2022-09-17T05:21:24;10.60;99.90
7427;DHT22;3755;59.316;18.092;2022-09-17T05:23:51;10.60;99.90
7427;DHT22;3755;59.316;18.092;2022-09-17T05:26:18;10.60;99.90
7427;DHT22;3755;59.316;18.092;2022-09-17T05:28:51;10.70;99.90
7427;DHT22;3755;59.316;18.092;2022-09-17T05:31:18;10.70;99.90
7427;DHT22;3755;59.316;18.092;2022-09-17T05:33:45;10.70;99.90
7427;DHT22;3755;59.316;18.092;2022-09-17T05:36:12;10.70;99.90
7427;DHT22;3755;59.316;18.092;2022-09-17T05:38:43;10.70;99.90
7427;DHT22;3755;59.316;18.092;2022-09-17T05:41:11;10.70;99.90
7427;DHT22;3755;59.316;18.092;2022-09-17T05:43:38;10.70;99.90
7427;DHT22;3755;59.316;18.092;2022-09-17T05:46:07;10.80;99.90
7427;DHT22;3755;59.316;18.092;2022-09-17T05:48:35;10.80;99.90
7427;DHT22;3755;59.316;18.092;2022-09-17T05:51:02;10.80;99.90
7427;DHT22;3755;59.316;18.092;2022-09-17T05:53:31;10.80;99.90
7427;DHT22;3755;59.316;18.092;2022-09-17T05:56:02;10.80;99.90
7427;DHT22;3755;59.316;18.092;2022-09-17T05:58:29;10.90;99.90
7427;DHT22;3755;59.316;18.092;2022-09-17T06:01:04;10.90;99.90
7427;DHT22;3755;59.316;18.092;2022-09-17T06:03:31;10.90;99.90
7427;DHT22;3755;59.316;18.092;2022-09-17T06:05:59;11.00;99.90
7427;DHT22;3755;59.316;18.092;2022-09-17T06:08:28;10.90;99.90
7427;DHT22;3755;59.316;18.092;2022-09-17T06:10:55;10.90;99.90
7427;DHT22;3755;59.316;18.092;2022-09-17T06:13:26;11.00;99.90
7427;DHT22;3755;59.316;18.092;2022-09-17T06:15:58;11.00;99.90
7427;DHT22;3755;59.316;18.092;2022-09-17T06:18:31;11.10;99.90
7427;DHT22;3755;59.316;18.092;2022-09-17T06:21:00;11.20;99.90
7427;DHT22;3755;59.316;18.092;2022-09-17T06:23:30;11.30;99.90
7427;DHT22;3755;59.316;18.092;2022-09-17T06:26:00;11.30;99.90
7427;DHT22;3755;59.316;18.092;2022-09-17T06:28:32;11.40;99.90
7427;DHT22;3755;59.316;18.092;2022-09-17T06:31:00;11.40;99.90
7427;DHT22;3755;59.316;18.092;2022-09-17T06:33:28;11.50;99.90
7427;DHT22;3755;59.316;18.092;2022-09-17T06:35:56;11.50;99.90
7427;DHT22;3755;59.316;18.092;2022-09-17T06:38:25;11.50;99.90
7427;DHT22;3755;59.316;18.092;2022-09-17T06:40:52;11.50;99.90
7427;DHT22;3755;59.316;18.092;2022-09-17T06:43:20;11.50;99.90
7427;DHT22;3755;59.316;18.092;2022-09-17T06:45:54;11.60;99.90
7427;DHT22;3755;59.316;18.092;2022-09-17T06:48:24;11.60;99.90
7427;DHT22;3755;59.316;18.092;2022-09-17T06:50:51;11.70;99.90
7427;DHT22;3755;59.316;18.092;2022-09-17T06:53:19;11.80;99.90
7427;DHT22;3755;59.316;18.092;2022-09-17T06:55:55;11.90;99.90
7427;DHT22;3755;59.316;18.092;2022-09-17T06:58:23;12.00;99.90
7427;DHT22;3755;59.316;18.092;2022-09-17T07:00:56;12.10;99.90
7427;DHT22;3755;59.316;18.092;2022-09-17T07:03:38;12.20;99.90
7427;DHT22;3755;59.316;18.092;2022-09-17T07:06:08;12.20;99.90
7427;DHT22;3755;59.316;18.092;2022-09-17T07:08:42;12.20;99.90
7427;DHT22;3755;59.316;18.092;2022-09-17T07:11:29;12.00;99.90
7427;DHT22;3755;59.316;18.092;2022-09-17T07:13:58;12.40;99.90
7427;DHT22;3755;59.316;18.092;2022-09-17T07:16:26;12.40;99.90
7427;DHT22;3755;59.316;18.092;2022-09-17T07:18:58;12.30;99.90
7427;DHT22;3755;59.316;18.092;2022-09-17T07:21:26;12.30;99.90
7427;DHT22;3755;59.316;18.092;2022-09-17T07:23:53;12.40;99.90
7427;DHT22;3755;59.316;18.092;2022-09-17T07:26:22;12.30;99.90
7427;DHT22;3755;59.316;18.092;2022-09-17T07:28:52;12.40;99.90
7427;DHT22;3755;59.316;18.092;2022-09-17T07:31:20;12.50;99.90
7427;DHT22;3755;59.316;18.092;2022-09-17T07:33:50;12.10;99.90
7427;DHT22;3755;59.316;18.092;2022-09-17T07:36:18;12.50;99.90
7427;DHT22;3755;59.316;18.092;2022-09-17T07:38:46;12.60;99.90
7427;DHT22;3755;59.316;18.092;2022-09-17T07:41:15;12.60;99.90
7427;DHT22;3755;59.316;18.092;2022-09-17T07:43:42;12.70;99.90
7427;DHT22;3755;59.316;18.092;2022-09-17T07:46:13;12.80;99.90
7427;DHT22;3755;59.316;18.092;2022-09-17T07:49:05;12.90;99.90
7427;DHT22;3755;59.316;18.092;2022-09-17T07:51:33;12.90;99.90
7427;DHT22;3755;59.316;18.092;2022-09-17T07:54:00;13.00;99.90
7427;DHT22;3755;59.316;18.092;2022-09-17T07:56:27;13.10;99.90
7427;DHT22;3755;59.316;18.092;2022-09-17T07:58:58;13.10;99.90
7427;DHT22;3755;59.316;18.092;2022-09-17T08:01:25;13.20;99.90
7427;DHT22;3755;59.316;18.092;2022-09-17T08:04:08;13.20;99.90
7427;DHT22;3755;59.316;18.092;2022-09-17T08:06:36;13.00;99.90
7427;DHT22;3755;59.316;18.092;2022-09-17T08:09:05;12.90;99.90
7427;DHT22;3755;59.316;18.092;2022-09-17T08:11:34;13.00;99.90
7427;DHT22;3755;59.316;18.092;2022-09-17T08:14:02;13.10;99.90
7427;DHT22;3755;59.316;18.092;2022-09-17T08:16:32;13.10;99.90
7427;DHT22;3755;59.316;18.092;2022-09-17T08:19:03;13.20;99.90
7427;DHT22;3755;59.316;18.092;2022-09-17T08:21:31;13.20;99.90
7427;DHT22;3755;59.316;18.092;2022-09-17T08:23:59;13.00;99.90
7427;DHT22;3755;59.316;18.092;2022-09-17T08:26:27;13.10;99.90
7427;DHT22;3755;59.316;18.092;2022-09-17T08:28:55;13.20;99.90
7427;DHT22;3755;59.316;18.092;2022-09-17T08:31:25;13.20;99.90
7427;DHT22;3755;59.316;18.092;2022-09-17T08:37:34;13.40;99.90
7427;DHT22;3755;59.316;18.092;2022-09-17T08:40:04;13.40;99.90
7427;DHT22;3755;59.316;18.092;2022-09-17T08:42:36;13.40;99.90
7427;DHT22;3755;59.316;18.092;2022-09-17T08:45:19;13.40;99.90
7427;DHT22;3755;59.316;18.092;2022-09-17T08:47:54;13.40;99.90
7427;DHT22;3755;59.316;18.092;2022-09-17T08:50:40;13.50;99.90
7427;DHT22;3755;59.316;18.092;2022-09-17T09:04:57;13.90;99.90
7427;DHT22;3755;59.316;18.092;2022-09-17T09:10:50;13.80;99.90
7427;DHT22;3755;59.316;18.092;2022-09-17T09:13:47;13.80;99.90
7427;DHT22;3755;59.316;18.092;2022-09-17T09:16:31;13.80;99.90
7427;DHT22;3755;59.316;18.092;2022-09-17T09:19:10;13.80;99.90
7427;DHT22;3755;59.316;18.092;2022-09-17T09:24:43;14.00;99.90
7427;DHT22;3755;59.316;18.092;2022-09-17T09:27:54;14.10;99.90
7427;DHT22;3755;59.316;18.092;2022-09-17T09:30:22;14.30;99.90
7427;DHT22;3755;59.316;18.092;2022-09-17T09:32:56;14.40;99.90
7427;DHT22;3755;59.316;18.092;2022-09-17T09:36:01;14.20;99.90
7427;DHT22;3755;59.316;18.092;2022-09-17T09:39:10;14.00;99.90
7427;DHT22;3755;59.316;18.092;2022-09-17T09:41:43;14.00;99.90
7427;DHT22;3755;59.316;18.092;2022-09-17T09:44:23;14.20;99.90
7427;DHT22;3755;59.316;18.092;2022-09-17T09:47:21;14.40;99.90
7427;DHT22;3755;59.316;18.092;2022-09-17T09:50:05;14.20;99.90
7427;DHT22;3755;59.316;18.092;2022-09-17T09:52:43;14.20;99.90
7427;DHT22;3755;59.316;18.092;2022-09-17T09:55:41;14.20;99.90
7427;DHT22;3755;59.316;18.092;2022-09-17T09:58:21;14.20;99.90
7427;DHT22;3755;59.316;18.092;2022-09-17T10:00:54;14.30;99.90
7427;DHT22;3755;59.316;18.092;2022-09-17T10:03:25;14.50;99.90
7427;DHT22;3755;59.316;18.092;2022-09-17T10:05:57;13.50;99.90
7427;DHT22;3755;59.316;18.092;2022-09-17T10:08:37;14.50;99.90
7427;DHT22;3755;59.316;18.092;2022-09-17T10:11:22;14.30;99.90
7427;DHT22;3755;59.316;18.092;2022-09-17T10:13:51;14.10;99.90
7427;DHT22;3755;59.316;18.092;2022-09-17T10:16:19;13.80;99.90
7427;DHT22;3755;59.316;18.092;2022-09-17T10:18:48;13.70;99.90
7427;DHT22;3755;59.316;18.092;2022-09-17T10:21:26;13.80;99.90
7427;DHT22;3755;59.316;18.092;2022-09-17T10:23:56;13.80;99.90
7427;DHT22;3755;59.316;18.092;2022-09-17T10:26:27;13.80;99.90
7427;DHT22;3755;59.316;18.092;2022-09-17T10:28:56;13.80;99.90
7427;DHT22;3755;59.316;18.092;2022-09-17T10:31:25;13.80;99.90
7427;DHT22;3755;59.316;18.092;2022-09-17T10:33:58;13.90;99.90
7427;DHT22;3755;59.316;18.092;2022-09-17T10:43:21;14.30;99.90
7427;DHT22;3755;59.316;18.092;2022-09-17T10:45:57;14.50;99.90
7427;DHT22;3755;59.316;18.092;2022-09-17T10:48:29;13.50;99.90
7427;DHT22;3755;59.316;18.092;2022-09-17T10:51:09;14.60;99.90
7427;DHT22;3755;59.316;18.092;2022-09-17T10:59:10;13.30;99.90
7427;DHT22;3755;59.316;18.092;2022-09-17T11:01:51;13.00;99.90
7427;DHT22;3755;59.316;18.092;2022-09-17T11:04:30;12.70;99.90
7427;DHT22;3755;59.316;18.092;2022-09-17T11:10:30;12.50;99.90
7427;DHT22;3755;59.316;18.092;2022-09-17T11:13:10;12.70;99.90
7427;DHT22;3755;59.316;18.092;2022-09-17T11:18:51;13.00;99.90
7427;DHT22;3755;59.316;18.092;2022-09-17T11:21:41;13.30;99.90
7427;DHT22;3755;59.316;18.092;2022-09-17T11:24:56;13.50;99.90
7427;DHT22;3755;59.316;18.092;2022-09-17T11:31:13;13.60;99.90
7427;DHT22;3755;59.316;18.092;2022-09-17T11:36:51;13.40;99.90
7427;DHT22;3755;59.316;18.092;2022-09-17T11:39:53;13.30;99.90
7427;DHT22;3755;59.316;18.092;2022-09-17T11:42:26;13.40;99.90
7427;DHT22;3755;59.316;18.092;2022-09-17T11:44:59;13.40;99.90
7427;DHT22;3755;59.316;18.092;2022-09-17T11:47:41;13.50;99.90
7427;DHT22;3755;59.316;18.092;2022-09-17T11:50:18;13.60;99.90
7427;DHT22;3755;59.316;18.092;2022-09-17T12:54:40;14.20;99.90
7427;DHT22;3755;59.316;18.092;2022-09-17T12:57:33;14.10;99.90
7427;DHT22;3755;59.316;18.092;2022-09-17T13:00:10;13.80;99.90
7427;DHT22;3755;59.316;18.092;2022-09-17T13:03:00;13.60;99.90
7427;DHT22;3755;59.316;18.092;2022-09-17T13:15:52;12.80;99.90
7427;DHT22;3755;59.316;18.092;2022-09-17T13:18:30;12.90;99.90
7427;DHT22;3755;59.316;18.092;2022-09-17T13:21:37;12.90;99.90
7427;DHT22;3755;59.316;18.092;2022-09-17T13:27:31;12.90;99.90
7427;DHT22;3755;59.316;18.092;2022-09-17T13:34:00;13.00;99.90
7427;DHT22;3755;59.316;18.092;2022-09-17T13:40:04;13.20;99.90
7427;DHT22;3755;59.316;18.092;2022-09-17T13:46:11;13.10;99.90
7427;DHT22;3755;59.316;18.092;2022-09-17T13:49:13;13.10;99.90
7427;DHT22;3755;59.316;18.092;2022-09-17T14:35:43;12.80;99.90
7427;DHT22;3755;59.316;18.092;2022-09-17T14:38:20;12.80;99.90
7427;DHT22;3755;59.316;18.092;2022-09-17T14:41:18;12.70;99.90
7427;DHT22;3755;59.316;18.092;2022-09-17T14:43:50;12.70;99.90
7427;DHT22;3755;59.316;18.092;2022-09-17T14:46:34;12.80;99.90
7427;DHT22;3755;59.316;18.092;2022-09-17T14:49:20;12.70;99.90
7427;DHT22;3755;59.316;18.092;2022-09-17T14:51:52;12.70;99.90
7427;DHT22;3755;59.316;18.092;2022-09-17T14:54:41;12.80;99.90
7427;DHT22;3755;59.316;18.092;2022-09-17T14:57:19;12.70;99.90
7427;DHT22;3755;59.316;18.092;2022-09-17T14:59:50;12.50;99.90
7427;DHT22;3755;59.316;18.092;2022-09-17T15:02:28;12.40;99.90
7427;DHT22;3755;59.316;18.092;2022-09-17T15:04:59;12.50;99.90
7427;DHT22;3755;59.316;18.092;2022-09-17T15:07:34;12.50;99.90
7427;DHT22;3755;59.316;18.092;2022-09-17T15:10:18;12.50;99.90
7427;DHT22;3755;59.316;18.092;2022-09-17T15:12:47;12.50;99.90
7427;DHT22;3755;59.316;18.092;2022-09-17T15:15:19;12.50;99.90
7427;DHT22;3755;59.316;18.092;2022-09-17T15:17:58;12.50;99.90
7427;DHT22;3755;59.316;18.092;2022-09-17T15:20:28;12.60;99.90
7427;DHT22;3755;59.316;18.092;2022-09-17T15:23:07;12.50;99.90
7427;DHT22;3755;59.316;18.092;2022-09-17T15:25:54;12.50;99.90
7427;DHT22;3755;59.316;18.092;2022-09-17T15:28:27;12.40;99.90
7427;DHT22;3755;59.316;18.092;2022-09-17T15:30:56;12.40;99.90
7427;DHT22;3755;59.316;18.092;2022-09-17T15:33:37;12.40;99.90
7427;DHT22;3755;59.316;18.092;2022-09-17T15:39:29;12.30;99.90
7427;DHT22;3755;59.316;18.092;2022-09-17T15:42:00;12.30;99.90
7427;DHT22;3755;59.316;18.092;2022-09-17T15:44:47;12.00;99.90
7427;DHT22;3755;59.316;18.092;2022-09-17T15:47:34;12.30;99.90
7427;DHT22;3755;59.316;18.092;2022-09-17T15:50:14;12.20;99.90
7427;DHT22;3755;59.316;18.092;2022-09-17T15:53:23;12.10;99.90
7427;DHT22;3755;59.316;18.092;2022-09-17T15:56:04;12.10;99.90
7427;DHT22;3755;59.316;18.092;2022-09-17T15:59:00;12.00;99.90
7427;DHT22;3755;59.316;18.092;2022-09-17T16:04:26;11.90;99.90
7427;DHT22;3755;59.316;18.092;2022-09-17T16:07:26;12.00;99.90
7427;DHT22;3755;59.316;18.092;2022-09-17T16:09:54;12.00;99.90
7427;DHT22;3755;59.316;18.092;2022-09-17T16:12:27;12.10;99.90
7427;DHT22;3755;59.316;18.092;2022-09-17T16:14:56;12.10;99.90
7427;DHT22;3755;59.316;18.092;2022-09-17T16:17:59;12.10;99.90
7427;DHT22;3755;59.316;18.092;2022-09-17T16:20:49;12.10;99.90
7427;DHT22;3755;59.316;18.092;2022-09-17T16:23:22;12.10;99.90
7427;DHT22;3755;59.316;18.092;2022-09-17T16:25:56;12.20;99.90
7427;DHT22;3755;59.316;18.092;2022-09-17T16:28:28;12.20;99.90
7427;DHT22;3755;59.316;18.092;2022-09-17T16:31:12;12.10;99.90
7427;DHT22;3755;59.316;18.092;2022-09-17T16:33:40;12.10;99.90
7427;DHT22;3755;59.316;18.092;2022-09-17T16:36:37;12.10;99.90
7427;DHT22;3755;59.316;18.092;2022-09-17T16:39:05;12.10;99.90
7427;DHT22;3755;59.316;18.092;2022-09-17T16:41:35;12.10;99.90
7427;DHT22;3755;59.316;18.092;2022-09-17T16:44:04;12.10;99.90
7427;DHT22;3755;59.316;18.092;2022-09-17T16:46:42;12.20;99.90
7427;DHT22;3755;59.316;18.092;2022-09-17T16:49:20;12.10;99.90
7427;DHT22;3755;59.316;18.092;2022-09-17T16:51:58;12.00;99.90
7427;DHT22;3755;59.316;18.092;2022-09-17T16:54:40;12.10;99.90
7427;DHT22;3755;59.316;18.092;2022-09-17T16:57:08;12.10;99.90
7427;DHT22;3755;59.316;18.092;2022-09-17T16:59:37;12.20;99.90
7427;DHT22;3755;59.316;18.092;2022-09-17T17:02:06;12.20;99.90
7427;DHT22;3755;59.316;18.092;2022-09-17T17:04:33;12.20;99.90
7427;DHT22;3755;59.316;18.092;2022-09-17T17:07:00;12.20;99.90
7427;DHT22;3755;59.316;18.092;2022-09-17T17:09:33;12.20;99.90
7427;DHT22;3755;59.316;18.092;2022-09-17T17:12:00;12.10;99.90
7427;DHT22;3755;59.316;18.092;2022-09-17T17:14:28;12.10;99.90
7427;DHT22;3755;59.316;18.092;2022-09-17T17:17:00;12.10;99.90
7427;DHT22;3755;59.316;18.092;2022-09-17T17:19:48;12.10;99.90
7427;DHT22;3755;59.316;18.092;2022-09-17T17:22:27;12.10;99.90
7427;DHT22;3755;59.316;18.092;2022-09-17T17:25:24;12.10;99.90
7427;DHT22;3755;59.316;18.092;2022-09-17T17:27:52;12.10;99.90
7427;DHT22;3755;59.316;18.092;2022-09-17T17:30:26;12.10;99.90
7427;DHT22;3755;59.316;18.092;2022-09-17T17:33:14;12.10;99.90
7427;DHT22;3755;59.316;18.092;2022-09-17T17:35:50;12.00;99.90
7427;DHT22;3755;59.316;18.092;2022-09-17T17:38:32;12.00;99.90
7427;DHT22;3755;59.316;18.092;2022-09-17T17:41:09;12.00;99.90
7427;DHT22;3755;59.316;18.092;2022-09-17T17:43:37;12.00;99.90
7427;DHT22;3755;59.316;18.092;2022-09-17T17:46:09;12.00;99.90
7427;DHT22;3755;59.316;18.092;2022-09-17T17:49:08;12.00;99.90
7427;DHT22;3755;59.316;18.092;2022-09-17T17:51:49;12.00;99.90
7427;DHT22;3755;59.316;18.092;2022-09-17T17:54:19;12.00;99.90
7427;DHT22;3755;59.316;18.092;2022-09-17T17:56:56;12.00;99.90
7427;DHT22;3755;59.316;18.092;2022-09-17T17:59:23;12.00;99.90
7427;DHT22;3755;59.316;18.092;2022-09-17T18:01:54;12.00;99.90
7427;DHT22;3755;59.316;18.092;2022-09-17T18:04:50;12.10;99.90
7427;DHT22;3755;59.316;18.092;2022-09-17T18:07:18;12.10;99.90
7427;DHT22;3755;59.316;18.092;2022-09-17T18:09:45;12.10;99.90
7427;DHT22;3755;59.316;18.092;2022-09-17T18:12:13;12.00;99.90
7427;DHT22;3755;59.316;18.092;2022-09-17T18:14:40;12.10;99.90
7427;DHT22;3755;59.316;18.092;2022-09-17T18:17:08;12.10;99.90
7427;DHT22;3755;59.316;18.092;2022-09-17T18:19:35;12.10;99.90
7427;DHT22;3755;59.316;18.092;2022-09-17T18:22:08;11.90;99.90
7427;DHT22;3755;59.316;18.092;2022-09-17T18:28:05;11.60;99.90
7427;DHT22;3755;59.316;18.092;2022-09-17T18:34:29;11.40;99.90
7427;DHT22;3755;59.316;18.092;2022-09-17T18:36:57;11.40;99.90
7427;DHT22;3755;59.316;18.092;2022-09-17T18:42:58;11.30;99.90
7427;DHT22;3755;59.316;18.092;2022-09-17T22:24:18;10.50;99.90
7427;DHT22;3755;59.316;18.092;2022-09-17T22:27:00;10.40;99.90
7427;DHT22;3755;59.316;18.092;2022-09-17T22:29:35;10.40;99.90
7427;DHT22;3755;59.316;18.092;2022-09-17T22:32:16;10.40;99.90
7427;DHT22;3755;59.316;18.092;2022-09-17T22:34:51;10.40;99.90
7427;DHT22;3755;59.316;18.092;2022-09-17T22:37:34;10.30;99.90
7427;DHT22;3755;59.316;18.092;2022-09-17T22:40:06;10.30;99.90
7427;DHT22;3755;59.316;18.092;2022-09-17T22:46:11;10.30;99.90
7427;DHT22;3755;59.316;18.092;2022-09-17T22:48:55;10.30;99.90
7427;DHT22;3755;59.316;18.092;2022-09-17T22:51:37;9.90;99.90
7427;DHT22;3755;59.316;18.092;2022-09-17T22:54:08;10.20;99.90
7427;DHT22;3755;59.316;18.092;2022-09-17T22:56:50;10.30;99.90
7427;DHT22;3755;59.316;18.092;2022-09-17T22:59:31;10.20;99.90
7427;DHT22;3755;59.316;18.092;2022-09-17T23:02:12;10.20;99.90
7427;DHT22;3755;59.316;18.092;2022-09-17T23:04:44;10.10;99.90
7427;DHT22;3755;59.316;18.092;2022-09-17T23:10:48;10.20;99.90
7427;DHT22;3755;59.316;18.092;2022-09-17T23:13:31;10.10;99.90
7427;DHT22;3755;59.316;18.092;2022-09-17T23:16:12;10.10;99.90
7427;DHT22;3755;59.316;18.092;2022-09-17T23:18:56;10.00;99.90
7427;DHT22;3755;59.316;18.092;2022-09-17T23:21:32;10.10;99.90
7427;DHT22;3755;59.316;18.092;2022-09-17T23:24:00;10.10;99.90
7427;DHT22;3755;59.316;18.092;2022-09-17T23:26:32;10.00;99.90
7427;DHT22;3755;59.316;18.092;2022-09-17T23:29:03;9.70;99.90
7427;DHT22;3755;59.316;18.092;2022-09-17T23:31:43;10.00;99.90
7427;DHT22;3755;59.316;18.092;2022-09-17T23:34:25;10.00;99.90
7427;DHT22;3755;59.316;18.092;2022-09-17T23:36:55;9.90;99.90
7427;DHT22;3755;59.316;18.092;2022-09-17T23:39:23;10.00;99.90